Escondido, California
Current Conditions -  °F | °C
As of 3:53 PM on Sunday 23 Nov 2014 (Local Time) from KRNM Reporting Station
Clear Clear  
Wind Chill: 68°   Ceiling: Unl
Heat Index: 68°   Visibility: 10mi
Dew Point:   Wind: 17mph
Humidity: 10%   Direction: 80°E
Pressure: 30.1"   Gusts: 22mph
Location:  33.12°N, 117.08°W
Report Text: KRNM 232353Z 08015G19KT 10SM CLR 20/M13 A3010 RMK AO2 SLP187 T02001128 10239 20172 53011 $
Loading
Personal Weather Stations






























Interactive Weather Map New forecast layout! Learn more

10-Day Weather Forecast

Advertisements
Track Severe Weather on mobile